createdAt,value
2017-09-13T00:00:56.608Z,83.76
2017-09-13T00:01:56.526Z,84
2017-09-13T00:02:56.288Z,85.05
2017-09-13T00:03:56.521Z,85.53
2017-09-13T00:04:56.525Z,84.77
2017-09-13T00:05:56.566Z,84
2017-09-13T00:06:56.549Z,84.67
2017-09-13T00:07:56.311Z,85.05
2017-09-13T00:08:56.198Z,85.25
2017-09-13T00:09:56.584Z,85.91
2017-09-13T00:10:56.511Z,85.15
2017-09-13T00:11:56.505Z,85.15
2017-09-13T00:12:56.223Z,84.39
2017-09-13T00:13:56.712Z,84.48
2017-09-13T00:14:56.879Z,84.67
2017-09-13T00:15:56.493Z,84.96
2017-09-13T00:16:56.510Z,84.86
2017-09-13T00:17:56.492Z,85.05
2017-09-13T00:18:56.611Z,85.53
2017-09-13T00:19:56.254Z,85.15
2017-09-13T00:20:56.491Z,84.39
2017-09-13T00:21:56.475Z,84.96
2017-09-13T00:22:56.474Z,84.77
2017-09-13T00:23:56.480Z,84.96
2017-09-13T00:24:56.478Z,85.63
2017-09-13T00:25:56.476Z,84.96
2017-09-13T00:26:56.479Z,85.34
2017-09-13T00:27:56.468Z,85.15
2017-09-13T00:28:56.169Z,85.25
2017-09-13T00:29:56.155Z,84.96
2017-09-13T00:30:56.160Z,85.05
2017-09-13T00:31:56.471Z,84.77
2017-09-13T00:32:56.457Z,84.77
2017-09-13T00:33:56.456Z,84.67
2017-09-13T00:34:56.155Z,84.96
2017-09-13T00:35:56.455Z,84.96
2017-09-13T00:36:56.142Z,84.1
2017-09-13T00:37:56.448Z,84.86
2017-09-13T00:38:56.443Z,84.2
2017-09-13T00:39:56.447Z,84.39
2017-09-13T00:40:56.133Z,85.15
2017-09-13T00:41:56.134Z,85.34
2017-09-13T00:42:56.127Z,85.44
2017-09-13T00:43:56.436Z,85.05
2017-09-13T00:44:56.438Z,85.15
2017-09-13T00:45:56.433Z,85.53
2017-09-13T00:46:56.430Z,84.86
2017-09-13T00:47:56.430Z,85.49
2017-09-13T00:48:56.427Z,85.44
2017-09-13T00:49:56.423Z,85.15
2017-09-13T00:50:56.425Z,85.63
2017-09-13T00:51:56.420Z,86.06
2017-09-13T00:52:56.422Z,86.16
2017-09-13T00:53:56.124Z,85.3
2017-09-13T00:54:56.414Z,85.77
2017-09-13T00:55:56.410Z,85.63
2017-09-13T00:56:56.411Z,86.16
2017-09-13T00:57:56.413Z,86.16
2017-09-13T00:58:56.413Z,86.01
2017-09-13T00:59:56.413Z,86.01
2017-09-13T01:00:56.400Z,85.3
2017-09-13T01:01:56.399Z,85.63
2017-09-13T01:02:56.415Z,85.82
2017-09-13T01:03:56.085Z,85.15
2017-09-13T01:04:56.393Z,85.63
2017-09-13T01:05:56.388Z,85.63
2017-09-13T01:06:56.080Z,85.15
2017-09-13T01:07:56.386Z,85.15
2017-09-13T01:08:56.075Z,85.34
2017-09-13T01:09:56.071Z,85.39
2017-09-13T01:10:56.380Z,86.2
2017-09-13T01:11:56.090Z,86.1
2017-09-13T01:12:56.066Z,85.25
2017-09-13T01:13:56.069Z,85.05
2017-09-13T01:14:56.372Z,85.05
2017-09-13T01:15:56.068Z,85.3
2017-09-13T01:16:56.366Z,86.01
2017-09-13T01:17:56.362Z,85.49
2017-09-13T01:18:56.360Z,85.72
2017-09-13T01:19:56.364Z,85.34
2017-09-13T01:20:56.363Z,85.05
2017-09-13T01:21:56.361Z,85.01
2017-09-13T01:22:56.353Z,85.49
2017-09-13T01:23:56.350Z,86.16
2017-09-13T01:24:56.357Z,85.87
2017-09-13T01:25:56.347Z,85.97
2017-09-13T01:26:56.354Z,85.49
2017-09-13T01:27:56.341Z,85.49
2017-09-13T01:28:56.339Z,85.97
2017-09-13T01:29:56.341Z,85.49
2017-09-13T01:30:56.339Z,85.77
2017-09-13T01:31:56.335Z,85.97
2017-09-13T01:32:56.330Z,86.16
2017-09-13T01:33:56.330Z,85.97
2017-09-13T01:34:56.024Z,86.35
2017-09-13T01:35:56.327Z,86.16
2017-09-13T01:36:56.019Z,85.77
2017-09-13T01:37:56.322Z,85.21
2017-09-13T01:38:56.321Z,85.58
2017-09-13T01:39:56.009Z,86.06
2017-09-13T01:40:56.315Z,85.77
2017-09-13T01:41:56.310Z,86.06
2017-09-13T01:42:56.312Z,85.87
2017-09-13T01:43:56.338Z,85.77
2017-09-13T01:44:56.308Z,86.06
2017-09-13T01:45:56.302Z,85.3
2017-09-13T01:46:56.300Z,85.01
2017-09-13T01:47:56.301Z,86.06
2017-09-13T01:48:56.299Z,86.16
2017-09-13T01:49:55.988Z,85.39
2017-09-13T01:50:55.985Z,85.87
2017-09-13T01:51:56.291Z,85.3
2017-09-13T01:52:55.984Z,85.01
2017-09-13T01:53:55.978Z,85.87
2017-09-13T01:54:55.980Z,85.77
2017-09-13T01:55:56.287Z,85.39
2017-09-13T01:56:56.282Z,85.3
2017-09-13T01:57:55.968Z,85.97
2017-09-13T01:58:56.275Z,84.92
2017-09-13T01:59:55.979Z,85.21
2017-09-13T02:00:56.268Z,85.49
2017-09-13T02:01:56.269Z,85.77
2017-09-13T02:02:56.274Z,84.92
2017-09-13T02:03:56.265Z,85.21
2017-09-13T02:04:55.959Z,85.49
2017-09-13T02:05:55.947Z,85.87
2017-09-13T02:06:56.258Z,85.49
2017-09-13T02:07:56.255Z,85.49
2017-09-13T02:08:55.948Z,85.68
2017-09-13T02:09:57.309Z,85.97
2017-09-13T02:10:56.249Z,86.25
2017-09-13T02:11:56.248Z,85.58
2017-09-13T02:12:55.935Z,85.3
2017-09-13T02:13:55.932Z,85.21
2017-09-13T02:14:56.241Z,85.11
2017-09-13T02:15:56.486Z,85.3
2017-09-13T02:16:55.924Z,85.49
2017-09-13T02:17:56.234Z,85.3
2017-09-13T02:18:56.232Z,85.87
2017-09-13T02:19:56.233Z,85.97
2017-09-13T02:20:56.231Z,85.77
2017-09-13T02:21:55.915Z,85.39
2017-09-13T02:22:55.910Z,85.3
2017-09-13T02:23:56.220Z,85.87
2017-09-13T02:24:56.218Z,86.06
2017-09-13T02:25:55.903Z,85.97
2017-09-13T02:26:56.214Z,86.44
2017-09-13T02:27:56.210Z,85.97
2017-09-13T02:28:56.211Z,85.68
2017-09-13T02:29:55.896Z,85.97
2017-09-13T02:30:56.209Z,86.06
2017-09-13T02:31:56.198Z,85.97
2017-09-13T02:32:56.205Z,85.97
2017-09-13T02:33:55.890Z,85.3
2017-09-13T02:34:55.888Z,85.87
2017-09-13T02:35:56.193Z,85.39
2017-09-13T02:36:56.188Z,85.49
2017-09-13T02:37:56.185Z,85.39
2017-09-13T02:38:56.187Z,85.77
2017-09-13T02:39:56.183Z,85.58
2017-09-13T02:40:55.873Z,85.39
2017-09-13T02:41:55.867Z,86.06
2017-09-13T02:42:56.175Z,85.3
2017-09-13T02:43:56.174Z,85.58
2017-09-13T02:44:56.171Z,85.58
2017-09-13T02:45:56.662Z,85.21
2017-09-13T02:46:56.171Z,85.3
2017-09-13T02:47:56.174Z,85.49
2017-09-13T02:48:56.176Z,85.39
2017-09-13T02:49:56.175Z,85.3
2017-09-13T02:50:56.162Z,85.01
2017-09-13T02:51:56.173Z,85.01
2017-09-13T02:52:56.154Z,85.97
2017-09-13T02:53:56.150Z,85.77
2017-09-13T02:54:56.161Z,85.77
2017-09-13T02:55:56.145Z,86.35
2017-09-13T02:56:55.841Z,87.11
2017-09-13T02:57:56.140Z,87.49
2017-09-13T02:58:56.145Z,86.63
2017-09-13T02:59:56.151Z,86.92
2017-09-13T03:00:56.146Z,86.82
2017-09-13T03:01:56.140Z,86.92
2017-09-13T03:02:56.150Z,86.82
2017-09-13T03:03:55.820Z,87.3
2017-09-13T03:04:56.127Z,87.87
2017-09-13T03:05:56.277Z,87.93
2017-09-13T03:06:56.126Z,88.88
2017-09-13T03:07:56.124Z,89.54
2017-09-13T03:08:55.806Z,89.07
2017-09-13T03:09:55.804Z,90.5
2017-09-13T03:10:56.123Z,90.22
2017-09-13T03:11:56.125Z,89.83
2017-09-13T03:12:56.106Z,89.93
2017-09-13T03:13:56.104Z,90.12
2017-09-13T03:14:55.793Z,90.12
2017-09-13T03:15:56.838Z,89.83
2017-09-13T03:16:56.099Z,91.17
2017-09-13T03:17:55.783Z,91.27
2017-09-13T03:18:55.785Z,90.22
2017-09-13T03:19:56.085Z,90.22
2017-09-13T03:20:56.081Z,90.5
2017-09-13T03:21:56.086Z,90.03
2017-09-13T03:22:55.767Z,89.54
2017-09-13T03:23:56.075Z,89.54
2017-09-13T03:24:56.080Z,89.26
2017-09-13T03:25:55.759Z,89.83
2017-09-13T03:26:56.065Z,89.54
2017-09-13T03:27:56.067Z,90.22
2017-09-13T03:28:56.066Z,90.03
2017-09-13T03:29:56.063Z,90.5
2017-09-13T03:30:56.062Z,90.31
2017-09-13T03:31:56.056Z,90.41
2017-09-13T03:32:56.054Z,90.31
2017-09-13T03:33:56.047Z,89.93
2017-09-13T03:34:56.044Z,89.74
2017-09-13T03:35:56.048Z,89.93
2017-09-13T03:36:56.037Z,90.12
2017-09-13T03:37:56.037Z,89.74
2017-09-13T03:38:56.036Z,89.45
2017-09-13T03:39:56.032Z,89.54
2017-09-13T03:40:56.028Z,89.93
2017-09-13T03:41:56.024Z,90.5
2017-09-13T03:42:56.025Z,90.03
2017-09-13T03:43:55.721Z,89.83
2017-09-13T03:44:55.710Z,90.31
2017-09-13T03:45:56.018Z,90.22
2017-09-13T03:46:56.014Z,89.54
2017-09-13T03:47:56.013Z,89.54
2017-09-13T03:48:56.015Z,89.17
2017-09-13T03:49:56.006Z,88.59
2017-09-13T03:50:55.695Z,88.78
2017-09-13T03:51:55.997Z,88.69
2017-09-13T03:52:55.802Z,88.69
2017-09-13T03:53:55.999Z,88.98
2017-09-13T03:54:55.991Z,88.88
2017-09-13T03:55:55.996Z,88.88
2017-09-13T03:56:55.986Z,88.59
2017-09-13T03:57:55.982Z,88.69
2017-09-13T03:58:55.983Z,88.59
2017-09-13T03:59:55.992Z,89.07
2017-09-13T04:00:55.976Z,89.83
2017-09-13T04:01:55.975Z,90.5
2017-09-13T04:02:55.666Z,90.03
2017-09-13T04:03:55.965Z,89.36
2017-09-13T04:04:55.962Z,89.54
2017-09-13T04:05:55.651Z,89.74
2017-09-13T04:06:55.959Z,89.74
2017-09-13T04:07:55.964Z,90.22
2017-09-13T04:08:55.956Z,89.83
2017-09-13T04:09:55.947Z,90.03
2017-09-13T04:10:55.951Z,90.12
2017-09-13T04:11:55.948Z,90.03
2017-09-13T04:12:55.633Z,90.5
2017-09-13T04:13:55.939Z,90.41
2017-09-13T04:14:55.629Z,89.54
2017-09-13T04:15:55.940Z,89.36
2017-09-13T04:16:55.629Z,89.93
2017-09-13T04:17:55.934Z,90.22
2017-09-13T04:18:55.622Z,90.31
2017-09-13T04:19:55.929Z,89.64
2017-09-13T04:20:55.921Z,89.07
2017-09-13T04:21:55.919Z,88.78
2017-09-13T04:22:55.915Z,89.17
2017-09-13T04:23:55.609Z,88.78
2017-09-13T04:24:55.599Z,88.02
2017-09-13T04:25:55.910Z,87.74
2017-09-13T04:26:55.598Z,88.12
2017-09-13T04:27:55.905Z,87.93
2017-09-13T04:28:55.904Z,88.21
2017-09-13T04:29:55.903Z,88.59
2017-09-13T04:30:55.901Z,88.21
2017-09-13T04:31:55.893Z,88.21
2017-09-13T04:32:55.892Z,87.49
2017-09-13T04:33:55.592Z,87.78
2017-09-13T04:34:55.891Z,87.87
2017-09-13T04:35:55.890Z,88.16
2017-09-13T04:36:55.885Z,87.78
2017-09-13T04:37:55.571Z,87.26
2017-09-13T04:38:55.882Z,87.97
2017-09-13T04:39:55.885Z,87.78
2017-09-13T04:40:55.565Z,88.21
2017-09-13T04:41:55.561Z,88.21
2017-09-13T04:42:55.866Z,88.26
2017-09-13T04:43:55.865Z,87.97
2017-09-13T04:44:55.560Z,87.3
2017-09-13T04:45:55.552Z,87.59
2017-09-13T04:46:55.551Z,87.68
2017-09-13T04:47:55.546Z,88.64
2017-09-13T04:48:55.545Z,88.16
2017-09-13T04:49:55.848Z,88.64
2017-09-13T04:50:55.544Z,87.49
2017-09-13T04:51:55.538Z,87.78
2017-09-13T04:52:55.844Z,88.21
2017-09-13T04:53:55.842Z,87.97
2017-09-13T04:54:55.844Z,88.5
2017-09-13T04:55:55.841Z,88.4
2017-09-13T04:56:55.833Z,88.78
2017-09-13T04:57:55.522Z,88.98
2017-09-13T04:58:55.827Z,88.59
2017-09-13T04:59:55.517Z,88.4
2017-09-13T05:00:55.822Z,88.59
2017-09-13T05:01:55.820Z,88.21
2017-09-13T05:02:55.822Z,87.26
2017-09-13T05:03:55.508Z,87.26
2017-09-13T05:04:55.817Z,87.4
2017-09-13T05:05:55.813Z,87.07
2017-09-13T05:06:55.815Z,86.02
2017-09-13T05:07:55.804Z,86.02
2017-09-13T05:08:55.805Z,85.83
2017-09-13T05:09:55.802Z,85.77
2017-09-13T05:10:55.801Z,85.68
2017-09-13T05:11:55.797Z,85.68
2017-09-13T05:12:55.490Z,86.16
2017-09-13T05:13:55.795Z,85.87
2017-09-13T05:14:55.789Z,85.87
2017-09-13T05:15:55.785Z,85.49
2017-09-13T05:16:56.580Z,85.58
2017-09-13T05:17:55.806Z,85.21
2017-09-13T05:18:55.782Z,84.63
2017-09-13T05:19:55.472Z,84.63
2017-09-13T05:20:55.777Z,84.82
2017-09-13T05:21:55.471Z,83.67
2017-09-13T05:22:55.797Z,83.87
2017-09-13T05:23:55.463Z,83.48
2017-09-13T05:24:55.769Z,83.11
2017-09-13T05:25:55.463Z,83.05
2017-09-13T05:26:55.770Z,82.57
2017-09-13T05:27:55.765Z,81.71
2017-09-13T05:28:55.764Z,80.66
2017-09-13T05:29:55.451Z,80.28
2017-09-13T05:30:55.804Z,80.57
2017-09-13T05:31:55.758Z,80.66
2017-09-13T05:32:55.758Z,80.32
2017-09-13T05:33:55.756Z,79.08
2017-09-13T05:34:55.761Z,78.6
2017-09-13T05:35:55.779Z,78.89
2017-09-13T05:36:55.749Z,78.6
2017-09-13T05:37:55.754Z,78.13
2017-09-13T05:38:55.446Z,76.69
2017-09-13T05:39:55.746Z,77.97
2017-09-13T05:40:55.433Z,79.02
2017-09-13T05:41:55.430Z,77.78
2017-09-13T05:42:55.747Z,75.96
2017-09-13T05:43:55.737Z,75.78
2017-09-13T05:44:55.735Z,74.44
2017-09-13T05:45:55.740Z,74.82
2017-09-13T05:46:55.733Z,74.05
2017-09-13T05:47:55.733Z,74.48
2017-09-13T05:48:55.734Z,73.61
2017-09-13T05:49:55.423Z,74.19
2017-09-13T05:50:55.737Z,72.75
2017-09-13T05:51:55.725Z,72.94
2017-09-13T05:52:55.416Z,73.23
2017-09-13T05:53:55.726Z,72.56
2017-09-13T05:54:55.417Z,73.04
2017-09-13T05:55:55.744Z,71.89
2017-09-13T05:56:55.722Z,70.68
2017-09-13T05:57:55.413Z,70.78
2017-09-13T05:58:55.416Z,72.12
2017-09-13T05:59:55.724Z,71.93
2017-09-13T06:00:55.723Z,70.11
2017-09-13T06:01:55.408Z,69.25
2017-09-13T06:02:55.718Z,69.73
2017-09-13T06:03:55.405Z,68.77
2017-09-13T06:04:55.718Z,68.77
2017-09-13T06:05:55.408Z,68.87
2017-09-13T06:06:55.723Z,67.91
2017-09-13T06:07:55.714Z,68.2
2017-09-13T06:08:55.714Z,69
2017-09-13T06:09:55.711Z,69.09
2017-09-13T06:10:55.402Z,68.33
2017-09-13T06:11:55.714Z,68.71
2017-09-13T06:12:55.711Z,68.33
2017-09-13T06:13:55.402Z,68.9
2017-09-13T06:14:55.711Z,67.47
2017-09-13T06:15:55.399Z,66.8
2017-09-13T06:16:55.712Z,67.18
2017-09-13T06:17:55.908Z,66.99
2017-09-13T06:18:55.711Z,66.32
2017-09-13T06:19:55.398Z,66.83
2017-09-13T06:20:55.397Z,67.27
2017-09-13T06:21:55.707Z,66.32
2017-09-13T06:22:55.401Z,65.58
2017-09-13T06:23:55.396Z,65.49
2017-09-13T06:24:55.704Z,65.11
2017-09-13T06:25:55.704Z,64.92
2017-09-13T06:26:55.395Z,65.01
2017-09-13T06:27:55.394Z,65.2
2017-09-13T06:28:55.716Z,65.58
2017-09-13T06:29:55.701Z,64.53
2017-09-13T06:30:55.710Z,64.25
2017-09-13T06:31:55.704Z,64.05
2017-09-13T06:32:55.699Z,64.09
2017-09-13T06:33:55.395Z,63.6
2017-09-13T06:34:55.703Z,64.72
2017-09-13T06:35:55.393Z,65.23
2017-09-13T06:36:55.394Z,65.05
2017-09-13T06:37:55.701Z,65.14
2017-09-13T06:38:55.703Z,64.18
2017-09-13T06:39:55.714Z,63.89
2017-09-13T06:40:55.399Z,64.95
2017-09-13T06:41:55.397Z,64.85
2017-09-13T06:42:55.706Z,64.09
2017-09-13T06:43:55.701Z,65.52
2017-09-13T06:44:55.395Z,64.56
2017-09-13T06:45:55.714Z,64.09
2017-09-13T06:46:55.705Z,63.6
2017-09-13T06:47:56.756Z,63.89
2017-09-13T06:48:55.396Z,63.7
2017-09-13T06:49:55.404Z,63.51
2017-09-13T06:50:55.706Z,63.7
2017-09-13T06:51:55.707Z,64.28
2017-09-13T06:52:55.397Z,65.05
2017-09-13T06:53:55.709Z,64.56
2017-09-13T06:54:55.705Z,64.28
2017-09-13T06:55:55.398Z,62.84
2017-09-13T06:56:55.399Z,63.51
2017-09-13T06:57:55.401Z,63.7
2017-09-13T06:58:55.706Z,62.55
2017-09-13T06:59:55.403Z,62.46
2017-09-13T07:00:55.710Z,63.42
2017-09-13T07:01:55.401Z,62.36
2017-09-13T07:02:55.405Z,62.93
2017-09-13T07:03:55.710Z,62.84
2017-09-13T07:04:55.717Z,63.8
2017-09-13T07:05:55.710Z,63.06
2017-09-13T07:06:55.712Z,62.1
2017-09-13T07:07:55.406Z,62.39
2017-09-13T07:08:55.710Z,62.39
2017-09-13T07:09:55.709Z,62.1
2017-09-13T07:10:55.713Z,62.87
2017-09-13T07:11:55.713Z,62.59
2017-09-13T07:12:55.713Z,62.01
2017-09-13T07:13:55.412Z,62.68
2017-09-13T07:14:55.407Z,62.3
2017-09-13T07:15:55.719Z,62.59
2017-09-13T07:16:55.412Z,62.59
2017-09-13T07:17:55.717Z,63.16
2017-09-13T07:18:55.716Z,63.06
2017-09-13T07:19:55.715Z,63.92
2017-09-13T07:20:55.718Z,65.75
2017-09-13T07:21:55.718Z,64.02
2017-09-13T07:22:55.415Z,63.83
2017-09-13T07:23:55.416Z,62.77
2017-09-13T07:24:55.414Z,62.96
2017-09-13T07:25:55.719Z,62.96
2017-09-13T07:26:55.416Z,62.96
2017-09-13T07:27:55.723Z,62.59
2017-09-13T07:28:55.416Z,62.59
2017-09-13T07:29:55.725Z,62.87
2017-09-13T07:30:55.724Z,63.06
2017-09-13T07:31:55.416Z,62.77
2017-09-13T07:32:55.725Z,61.91
2017-09-13T07:33:55.727Z,61.82
2017-09-13T07:34:55.732Z,62.59
2017-09-13T07:35:55.725Z,62.59
2017-09-13T07:36:55.730Z,62.33
2017-09-13T07:37:55.727Z,61.82
2017-09-13T07:38:55.729Z,62.1
2017-09-13T07:39:55.733Z,64.79
2017-09-13T07:40:55.730Z,63.64
2017-09-13T07:41:55.734Z,62.68
2017-09-13T07:42:55.426Z,62.59
2017-09-13T07:43:55.733Z,62.87
2017-09-13T07:44:55.426Z,63.16
2017-09-13T07:45:55.734Z,64.4
2017-09-13T07:46:55.427Z,64.59
2017-09-13T07:47:55.738Z,64.98
2017-09-13T07:48:55.992Z,64.89
2017-09-13T07:49:55.742Z,66.22
2017-09-13T07:50:55.738Z,66.89
2017-09-13T07:51:55.757Z,65.08
2017-09-13T07:52:55.437Z,64.98
2017-09-13T07:53:55.740Z,64.12
2017-09-13T07:54:55.740Z,63.83
2017-09-13T07:55:55.438Z,63.64
2017-09-13T07:56:55.740Z,63.54
2017-09-13T07:57:55.751Z,63.73
2017-09-13T07:58:55.744Z,64.4
2017-09-13T07:59:55.747Z,63.92
2017-09-13T08:00:55.744Z,63.73
2017-09-13T08:01:55.751Z,63.35
2017-09-13T08:02:55.439Z,63.54
2017-09-13T08:03:55.748Z,63.16
2017-09-13T08:04:55.747Z,63.64
2017-09-13T08:05:55.750Z,63.73
2017-09-13T08:06:55.750Z,63.73
2017-09-13T08:07:55.752Z,63.54
2017-09-13T08:08:55.753Z,64.98
2017-09-13T08:09:55.756Z,64.02
2017-09-13T08:10:55.757Z,64.43
2017-09-13T08:11:55.755Z,64.25
2017-09-13T08:12:55.453Z,62.71
2017-09-13T08:13:55.756Z,62.81
2017-09-13T08:14:55.757Z,62.13
2017-09-13T08:15:55.758Z,63.19
2017-09-13T08:16:55.452Z,64.15
2017-09-13T08:17:55.762Z,63.19
2017-09-13T08:18:56.563Z,62.42
2017-09-13T08:19:55.764Z,62.65
2017-09-13T08:20:55.763Z,63.29
2017-09-13T08:21:55.767Z,63.29
2017-09-13T08:22:55.765Z,62.71
2017-09-13T08:23:55.775Z,62.42
2017-09-13T08:24:55.766Z,62.42
2017-09-13T08:25:55.771Z,62.71
2017-09-13T08:26:55.776Z,62.93
2017-09-13T08:27:55.773Z,62.62
2017-09-13T08:28:55.463Z,65.81
2017-09-13T08:29:55.467Z,65.43
2017-09-13T08:30:55.774Z,64.56
2017-09-13T08:31:55.776Z,63.32
2017-09-13T08:32:55.776Z,63.99
2017-09-13T08:33:55.778Z,63.12
2017-09-13T08:34:55.780Z,62.45
2017-09-13T08:35:55.783Z,62.16
2017-09-13T08:36:55.477Z,62.45
2017-09-13T08:37:55.787Z,62.65
2017-09-13T08:38:55.785Z,62.55
2017-09-13T08:39:55.787Z,61.88
2017-09-13T08:40:55.786Z,61.88
2017-09-13T08:41:55.789Z,62.55
2017-09-13T08:42:55.792Z,62.19
2017-09-13T08:43:55.792Z,64.56
2017-09-13T08:44:55.795Z,63.83
2017-09-13T08:45:55.794Z,62.01
2017-09-13T08:46:55.489Z,61.62
2017-09-13T08:47:55.800Z,62.68
2017-09-13T08:48:55.802Z,63.16
2017-09-13T08:49:55.494Z,62.01
2017-09-13T08:50:55.493Z,61.81
2017-09-13T08:51:55.805Z,61.24
2017-09-13T08:52:55.807Z,61.81
2017-09-13T08:53:55.814Z,61.72
2017-09-13T08:54:55.867Z,61.72
2017-09-13T08:55:55.870Z,61.94
2017-09-13T08:56:55.812Z,61.36
2017-09-13T08:57:55.816Z,60.88
2017-09-13T08:58:55.509Z,60.78
2017-09-13T08:59:55.817Z,61.17
2017-09-13T09:00:55.824Z,61.46
2017-09-13T09:01:55.827Z,60.88
2017-09-13T09:02:55.824Z,61.36
2017-09-13T09:03:55.863Z,60.98
2017-09-13T09:04:55.829Z,61.08
2017-09-13T09:05:55.832Z,61.46
2017-09-13T09:06:55.841Z,62.52
2017-09-13T09:07:55.526Z,62.32
2017-09-13T09:08:55.848Z,62.13
2017-09-13T09:09:55.842Z,62.99
2017-09-13T09:10:55.847Z,62.52
2017-09-13T09:11:55.841Z,62.26
2017-09-13T09:12:55.535Z,61.87
2017-09-13T09:13:55.849Z,61.3
2017-09-13T09:14:55.849Z,61.68
2017-09-13T09:15:55.543Z,61.2
2017-09-13T09:16:55.867Z,61.61
2017-09-13T09:17:55.856Z,63.41
2017-09-13T09:18:55.557Z,63.22
2017-09-13T09:19:55.860Z,63.32
2017-09-13T09:20:55.871Z,63.99
2017-09-13T09:21:55.571Z,63.99
2017-09-13T09:22:55.869Z,63.7
2017-09-13T09:23:55.558Z,64.09
2017-09-13T09:24:55.873Z,64.76
2017-09-13T09:25:55.874Z,64.66
2017-09-13T09:26:55.574Z,65.05
2017-09-13T09:27:55.577Z,65.05
2017-09-13T09:28:55.591Z,64.37
2017-09-13T09:29:55.642Z,64.12
2017-09-13T09:30:55.888Z,64.79
2017-09-13T09:31:55.589Z,63.83
2017-09-13T09:32:55.585Z,64.12
2017-09-13T09:33:55.580Z,63.83
2017-09-13T09:34:55.592Z,63.83
2017-09-13T09:35:55.583Z,64.69
2017-09-13T09:36:55.891Z,64.4
2017-09-13T09:37:55.592Z,64.31
2017-09-13T09:38:55.607Z,64.31
2017-09-13T09:39:55.907Z,64.4
2017-09-13T09:40:55.593Z,64.22
2017-09-13T09:41:55.908Z,63.92
2017-09-13T09:42:55.904Z,63.95
2017-09-13T09:43:55.908Z,63.95
2017-09-13T09:44:55.602Z,63.57
2017-09-13T09:45:55.911Z,63.18
2017-09-13T09:46:55.914Z,63.28
2017-09-13T09:47:55.611Z,63.38
2017-09-13T09:48:55.920Z,64.15
2017-09-13T09:49:55.923Z,64.15
2017-09-13T09:50:55.621Z,63.48
2017-09-13T09:51:55.931Z,64.15
2017-09-13T09:52:55.929Z,64.25
2017-09-13T09:53:55.932Z,63.31
2017-09-13T09:54:55.630Z,62.74
2017-09-13T09:55:55.633Z,63.41
2017-09-13T09:56:55.941Z,63.41
2017-09-13T09:57:55.950Z,62.54
2017-09-13T09:58:55.647Z,62.64
2017-09-13T09:59:55.947Z,62.74
2017-09-13T10:00:55.954Z,62.64
2017-09-13T10:01:55.955Z,62.45
2017-09-13T10:02:55.957Z,62.45
2017-09-13T10:03:55.993Z,62.54
2017-09-13T10:04:55.972Z,62.54
2017-09-13T10:05:55.968Z,62.35
2017-09-13T10:06:55.663Z,62.29
2017-09-13T10:07:55.666Z,62.48
2017-09-13T10:08:55.665Z,62.57
2017-09-13T10:09:55.982Z,63.15
2017-09-13T10:10:55.987Z,62.57
2017-09-13T10:11:55.990Z,62
2017-09-13T10:12:55.681Z,61.83
2017-09-13T10:13:55.684Z,62.6
2017-09-13T10:14:55.996Z,61.1
2017-09-13T10:15:56.002Z,60.42
2017-09-13T10:16:56.008Z,60.52
2017-09-13T10:17:56.006Z,59.65
2017-09-13T10:18:56.012Z,59.2
2017-09-13T10:19:56.654Z,58.52
2017-09-13T10:20:56.013Z,58.23
2017-09-13T10:21:56.029Z,57.27
2017-09-13T10:22:56.027Z,57.94
2017-09-13T10:23:56.029Z,58.62
2017-09-13T10:24:55.735Z,60.55
2017-09-13T10:25:56.042Z,58.62
2017-09-13T10:26:55.738Z,59.39
2017-09-13T10:27:56.048Z,58.52
2017-09-13T10:28:56.050Z,58.55
2017-09-13T10:29:56.056Z,57.68
2017-09-13T10:30:55.757Z,57.2
2017-09-13T10:31:56.080Z,56.91
2017-09-13T10:32:56.076Z,57.78
2017-09-13T10:33:56.085Z,58.17
2017-09-13T10:34:56.100Z,57.78
2017-09-13T10:35:56.085Z,57.29
2017-09-13T10:36:56.080Z,57.39
2017-09-13T10:37:55.778Z,57.94
2017-09-13T10:38:55.808Z,57.78
2017-09-13T10:39:56.108Z,57.68
2017-09-13T10:40:56.103Z,57.49
2017-09-13T10:41:55.797Z,57.78
2017-09-13T10:42:56.109Z,57.59
2017-09-13T10:43:55.803Z,57.29
2017-09-13T10:44:56.122Z,57.1
2017-09-13T10:45:56.149Z,57.1
2017-09-13T10:46:56.130Z,56.84
2017-09-13T10:47:56.130Z,56.46
2017-09-13T10:48:56.131Z,56.62
2017-09-13T10:49:56.445Z,57.2
2017-09-13T10:50:56.145Z,56.65
2017-09-13T10:51:55.835Z,56.84
2017-09-13T10:52:56.154Z,56.84
2017-09-13T10:53:55.844Z,55.78
2017-09-13T10:54:56.158Z,56.84
2017-09-13T10:55:56.172Z,56.46
2017-09-13T10:56:56.172Z,57.23
2017-09-13T10:57:56.186Z,56.84
2017-09-13T10:58:55.869Z,58.39
2017-09-13T10:59:56.181Z,57.49
2017-09-13T11:00:56.195Z,57.78
2017-09-13T11:01:56.194Z,57.97
2017-09-13T11:02:56.193Z,58.75
2017-09-13T11:03:55.887Z,57.68
2017-09-13T11:04:55.894Z,58.45
2017-09-13T11:05:56.207Z,58.36
2017-09-13T11:06:56.207Z,58.17
2017-09-13T11:07:56.214Z,58.75
2017-09-13T11:08:55.910Z,59.52
2017-09-13T11:09:56.219Z,58.55
2017-09-13T11:10:56.227Z,58.55
2017-09-13T11:11:55.923Z,58.45
2017-09-13T11:12:56.238Z,59.2
2017-09-13T11:13:55.927Z,58.81
2017-09-13T11:14:56.242Z,59.61
2017-09-13T11:15:56.246Z,58.75
2017-09-13T11:16:55.946Z,58.36
2017-09-13T11:17:56.264Z,57.97
2017-09-13T11:18:56.263Z,58.36
2017-09-13T11:19:57.220Z,58.07
2017-09-13T11:20:56.265Z,58.81
2017-09-13T11:21:55.959Z,59.1
2017-09-13T11:22:56.278Z,58.65
2017-09-13T11:23:56.277Z,58.65
2017-09-13T11:24:56.289Z,58.65
2017-09-13T11:25:55.981Z,58.75
2017-09-13T11:26:56.288Z,59.13
2017-09-13T11:27:55.984Z,59.03
2017-09-13T11:28:56.002Z,58.26
2017-09-13T11:29:56.310Z,57.78
2017-09-13T11:30:56.309Z,57.68
2017-09-13T11:31:56.314Z,58.75
2017-09-13T11:32:56.322Z,58.07
2017-09-13T11:33:56.016Z,58.84
2017-09-13T11:34:56.333Z,56.81
2017-09-13T11:35:56.328Z,57.39
2017-09-13T11:36:56.330Z,57.97
2017-09-13T11:37:56.336Z,57.39
2017-09-13T11:38:56.337Z,57.68
2017-09-13T11:39:56.344Z,57.01
2017-09-13T11:40:56.348Z,57.68
2017-09-13T11:41:56.353Z,57.49
2017-09-13T11:42:56.356Z,57.2
2017-09-13T11:43:56.052Z,57.01
2017-09-13T11:44:56.367Z,56.52
2017-09-13T11:45:56.368Z,56.91
2017-09-13T11:46:56.369Z,56.79
2017-09-13T11:47:56.386Z,57.1
2017-09-13T11:48:56.430Z,56.59
2017-09-13T11:49:56.391Z,56.62
2017-09-13T11:50:56.390Z,57.01
2017-09-13T11:51:56.393Z,56.04
2017-09-13T11:52:56.398Z,55.56
2017-09-13T11:53:56.395Z,55.66
2017-09-13T11:54:56.093Z,55.66
2017-09-13T11:55:56.404Z,55.49
2017-09-13T11:56:56.417Z,55.4
2017-09-13T11:57:56.111Z,55.49
2017-09-13T11:58:56.134Z,55.4
2017-09-13T11:59:56.427Z,55.94
2017-09-13T12:00:56.123Z,56.56
2017-09-13T12:01:56.430Z,55.98
2017-09-13T12:02:56.438Z,55.59
2017-09-13T12:03:56.438Z,56.56
2017-09-13T12:04:56.441Z,56.84
2017-09-13T12:05:56.136Z,57.68
2017-09-13T12:06:56.139Z,57.97
2017-09-13T12:07:56.464Z,58.07
2017-09-13T12:08:56.459Z,58.26
2017-09-13T12:09:56.463Z,58.26
2017-09-13T12:10:56.471Z,59.1
2017-09-13T12:11:56.162Z,59
2017-09-13T12:12:56.485Z,59.2
2017-09-13T12:13:56.180Z,59.97
2017-09-13T12:14:56.176Z,59.68
2017-09-13T12:15:56.488Z,60.06
2017-09-13T12:16:56.488Z,60.55
2017-09-13T12:17:56.492Z,61.13
2017-09-13T12:18:56.493Z,61.03
2017-09-13T12:19:56.495Z,61.8
2017-09-13T12:20:56.503Z,62.45
2017-09-13T12:21:56.506Z,63.12
2017-09-13T12:22:56.508Z,62.93
2017-09-13T12:23:56.512Z,63.21
2017-09-13T12:24:56.514Z,63.6
2017-09-13T12:25:56.517Z,63.79
2017-09-13T12:26:56.515Z,64.18
2017-09-13T12:27:56.222Z,64.34
2017-09-13T12:28:56.530Z,65.11
2017-09-13T12:29:56.533Z,64.73
2017-09-13T12:30:56.268Z,65.11
2017-09-13T12:31:56.537Z,65.66
2017-09-13T12:32:56.542Z,66.04
2017-09-13T12:33:56.233Z,66.52
2017-09-13T12:34:56.554Z,66.91
2017-09-13T12:35:56.243Z,66.52
2017-09-13T12:36:56.276Z,66.71
2017-09-13T12:37:56.562Z,67.1
2017-09-13T12:38:56.557Z,67.29
2017-09-13T12:39:56.570Z,67
2017-09-13T12:40:56.571Z,67.45
2017-09-13T12:41:56.566Z,67.65
2017-09-13T12:42:56.570Z,67.68
2017-09-13T12:43:56.572Z,67.45
2017-09-13T12:44:56.583Z,68.03
2017-09-13T12:45:56.268Z,68.41
2017-09-13T12:46:56.277Z,68.6
2017-09-13T12:47:56.584Z,67.93
2017-09-13T12:48:56.584Z,68.13
2017-09-13T12:49:56.590Z,68.03
2017-09-13T12:50:56.738Z,67.65
2017-09-13T12:51:56.595Z,67.97
2017-09-13T12:52:56.294Z,67.68
2017-09-13T12:53:56.291Z,67.83
2017-09-13T12:54:56.601Z,67.97
2017-09-13T12:55:56.295Z,67.68